Holbaek, Denmark
Current Conditions -  °F | °C
As of 4:20 AM on Sunday 23 Nov 2014 (Local Time) from EKRK Reporting Station
Broken Clouds Broken Clouds  
Wind Chill: 35°   Ceiling: 2200
Heat Index: 43°   Visibility: 6mi
Dew Point: 41°   Wind: 16mph
Humidity: 93%   Direction: 140°SE
Pressure: 30.21"   Gusts: NA
Location:  55.72°N, 11.72°E
Report Text: EKRK 230320Z AUTO 14014KT 9999NDV FEW018/// BKN022///BKN050/// 06/05 Q1023
Loading
Personal Weather Stations






























Interactive Weather Map New forecast layout! Learn more

10-Day Weather Forecast

Advertisements
Track Severe Weather on mobile